Time;durP1;ratioP1;P1;durP2;ratioP2;P2;SDS_P1;SDS_P2;PMS_P1;PMS_P2;Temp;Humidity;BMP_temperature;BMP_pressure;BME280_temperature;BME280_humidity;BME280_pressure;Samples;Min_cycle;Max_cycle;Signal;HPM_P1;HPM_P2
2021/06/24 00:01:13;;;;;;;10.07;7.76;;;;;;;17.29;78.96;99484.28;2028670;77;20165;-73
2021/06/24 00:04:16;;;;;;;8.81;7.88;;;;;;;17.21;79.32;99475.75;2032054;79;20226;-71
2021/06/24 00:07:18;;;;;;;8.30;7.46;;;;;;;17.10;79.40;99488.34;2032005;79;20207;-72
2021/06/24 00:10:21;;;;;;;8.70;7.89;;;;;;;17.00;79.34;99487.75;2031583;79;20650;-72
2021/06/24 00:13:24;;;;;;;10.19;7.61;;;;;;;16.88;80.05;99490.75;2032021;79;20276;-72
2021/06/24 00:16:29;;;;;;;8.60;7.79;;;;;;;16.83;80.32;99495.22;2031187;77;20381;-72
2021/06/24 00:19:32;;;;;;;9.69;7.96;;;;;;;16.75;81.19;99494.59;2032100;79;20205;-72
2021/06/24 00:22:35;;;;;;;10.86;8.34;;;;;;;16.78;81.75;99487.50;2031806;79;20690;-72
2021/06/24 00:25:37;;;;;;;9.09;8.16;;;;;;;16.84;81.85;99487.31;2032501;79;20206;-72
2021/06/24 00:28:40;;;;;;;10.09;9.16;;;;;;;16.88;82.15;99491.59;2032455;79;20181;-75
2021/06/24 00:31:43;;;;;;;11.71;9.81;;;;;;;16.90;81.68;99478.44;2032041;79;20173;-72
2021/06/24 00:34:45;;;;;;;11.01;8.25;;;;;;;16.96;80.67;99486.13;2032576;79;20193;-72
2021/06/24 00:37:48;;;;;;;9.41;8.51;;;;;;;16.94;80.54;99485.31;2032496;79;20166;-71
2021/06/24 00:40:51;;;;;;;10.82;8.81;;;;;;;16.96;81.07;99482.63;2032540;79;20195;-72
2021/06/24 00:43:54;;;;;;;13.09;9.02;;;;;;;16.95;81.21;99480.94;2032017;79;20231;-72
2021/06/24 00:46:56;;;;;;;11.79;8.86;;;;;;;16.94;80.96;99481.84;2028702;79;20292;-72
2021/06/24 00:49:59;;;;;;;14.21;8.65;;;;;;;16.88;80.76;99478.50;2026375;79;20706;-72
2021/06/24 00:53:02;;;;;;;9.81;8.65;;;;;;;16.88;80.73;99475.00;2026740;80;20798;-72
2021/06/24 00:56:21;;;;;;;9.98;9.02;;;;;;;16.82;80.98;99477.78;2027222;79;20192;-72
2021/06/24 00:59:24;;;;;;;12.68;9.14;;;;;;;16.80;80.85;99475.22;2026613;80;20214;-71
2021/06/24 01:02:27;;;;;;;10.34;8.48;;;;;;;16.81;80.84;99474.31;2030207;76;20214;-71
2021/06/24 01:05:30;;;;;;;12.48;8.86;;;;;;;16.80;81.05;99474.34;2031967;79;20185;-72
2021/06/24 01:08:33;;;;;;;10.48;8.20;;;;;;;16.79;81.41;99473.50;2032314;79;20242;-72
2021/06/24 01:11:36;;;;;;;10.35;9.24;;;;;;;16.79;81.64;99467.38;2030531;79;20238;-71
2021/06/24 01:14:39;;;;;;;12.76;9.48;;;;;;;16.82;81.86;99464.66;2031176;79;20189;-71
2021/06/24 01:17:42;;;;;;;14.39;9.64;;;;;;;16.81;81.72;99463.81;2027107;77;21578;-71
2021/06/24 01:20:44;;;;;;;11.65;9.41;;;;;;;16.77;81.71;99462.19;2026604;79;20182;-71
2021/06/24 01:23:47;;;;;;;11.00;8.64;;;;;;;16.78;81.96;99461.28;2027678;79;20200;-72
2021/06/24 01:26:50;;;;;;;14.26;9.51;;;;;;;16.72;82.18;99452.75;2027748;79;20171;-72
2021/06/24 01:29:52;;;;;;;12.88;8.94;;;;;;;16.70;82.45;99452.78;2027564;79;20183;-72
2021/06/24 01:32:56;;;;;;;10.93;9.46;;;;;;;16.66;82.40;99447.63;2032488;76;20314;-72
2021/06/24 01:36:02;;;;;;;11.18;9.20;;;;;;;16.62;82.10;99452.94;2032368;79;20169;-72
2021/06/24 01:39:08;;;;;;;15.59;10.05;;;;;;;16.60;82.39;99453.91;2033684;79;20203;-72
2021/06/24 01:42:13;;;;;;;12.38;10.24;;;;;;;16.60;82.61;99446.91;2033306;79;20214;-71
2021/06/24 01:45:15;;;;;;;15.04;10.81;;;;;;;16.67;82.70;99449.38;2031947;79;20173;-73
2021/06/24 01:48:19;;;;;;;15.85;10.25;;;;;;;16.71;82.71;99446.63;2028246;76;20631;-73
2021/06/24 01:51:22;;;;;;;13.04;11.89;;;;;;;16.73;82.60;99442.22;2027799;79;20194;-73
2021/06/24 01:54:25;;;;;;;17.01;12.50;;;;;;;16.79;82.01;99435.91;2028225;79;20205;-73
2021/06/24 01:57:28;;;;;;;14.99;12.16;;;;;;;16.87;81.68;99434.78;2028086;79;20269;-74
2021/06/24 02:00:30;;;;;;;15.09;12.27;;;;;;;16.92;81.11;99432.91;2027401;79;20989;-73
2021/06/24 02:03:37;;;;;;;16.69;12.29;;;;;;;16.94;80.94;99432.84;2029838;79;20200;-73
2021/06/24 02:06:40;;;;;;;21.92;12.90;;;;;;;16.98;80.54;99433.63;2029189;79;20402;-74
2021/06/24 02:09:42;;;;;;;14.43;12.55;;;;;;;17.02;80.31;99432.59;2029535;79;20206;-74
2021/06/24 02:12:45;;;;;;;13.81;12.26;;;;;;;17.04;80.12;99425.53;2029366;79;20210;-73
2021/06/24 02:15:48;;;;;;;13.34;11.75;;;;;;;17.04;79.94;99422.94;2030216;76;20265;-74
2021/06/24 02:18:51;;;;;;;16.98;13.59;;;;;;;17.05;79.74;99420.25;2034251;79;20679;-74
2021/06/24 02:21:54;;;;;;;18.69;13.32;;;;;;;17.07;79.55;99421.09;2034958;79;20404;-73
2021/06/24 02:24:57;;;;;;;22.88;14.61;;;;;;;17.07;79.54;99421.09;2035723;79;20170;-74
2021/06/24 02:28:00;;;;;;;15.98;14.23;;;;;;;17.08;79.27;99411.47;2034396;79;20196;-73
2021/06/24 02:31:03;;;;;;;17.42;14.32;;;;;;;17.07;79.11;99410.59;2032197;77;20198;-74
2021/06/24 02:34:06;;;;;;;16.94;14.15;;;;;;;17.08;78.99;99398.34;2029544;79;20204;-73
2021/06/24 02:37:09;;;;;;;14.96;13.49;;;;;;;17.08;78.71;99401.81;2028813;79;20190;-74
2021/06/24 02:40:14;;;;;;;14.60;13.34;;;;;;;17.10;78.79;99402.63;2029097;79;20186;-74
2021/06/24 02:43:17;;;;;;;14.34;12.54;;;;;;;17.10;78.85;99407.88;2029012;79;20265;-73
2021/06/24 02:46:19;;;;;;;13.55;12.27;;;;;;;17.13;78.80;99406.91;2028192;76;20683;-73
2021/06/24 02:49:22;;;;;;;15.14;12.40;;;;;;;17.13;78.65;99409.53;2028565;79;20328;-74
2021/06/24 02:52:25;;;;;;;13.86;11.61;;;;;;;17.15;78.51;99402.47;2028484;79;20194;-74
2021/06/24 02:55:30;;;;;;;13.48;12.01;;;;;;;17.16;78.66;99409.44;2029432;79;20718;-74
2021/06/24 02:58:33;;;;;;;12.32;11.01;;;;;;;17.16;78.69;99404.19;2028830;79;20207;-75
2021/06/24 03:01:38;;;;;;;15.82;11.39;;;;;;;17.17;78.55;99405.91;2031073;76;20787;-74
2021/06/24 03:04:41;;;;;;;14.11;11.13;;;;;;;17.18;78.67;99398.00;2033512;79;20199;-74
2021/06/24 03:07:44;;;;;;;15.25;12.45;;;;;;;17.19;78.82;99394.44;2032638;79;20203;-73
2021/06/24 03:10:47;;;;;;;18.69;11.50;;;;;;;17.19;78.85;99380.47;2033377;79;20189;-73
2021/06/24 03:13:50;;;;;;;16.05;11.40;;;;;;;17.21;79.54;99383.91;2032893;79;20220;-73
2021/06/24 03:16:53;;;;;;;17.52;10.68;;;;;;;17.21;79.93;99387.38;2029244;77;21003;-73
2021/06/24 03:19:55;;;;;;;14.73;10.01;;;;;;;17.21;79.78;99378.66;2027123;79;20195;-73
2021/06/24 03:22:59;;;;;;;13.55;8.74;;;;;;;17.23;79.16;99382.09;2027413;79;20194;-73
2021/06/24 03:26:02;;;;;;;10.71;8.85;;;;;;;17.24;79.14;99381.22;2028194;79;20196;-72
2021/06/24 03:29:05;;;;;;;13.11;9.14;;;;;;;17.23;79.11;99382.09;2026821;79;20207;-72
2021/06/24 03:32:08;;;;;;;14.10;9.95;;;;;;;17.24;79.46;99385.59;2031098;77;22300;-74
2021/06/24 03:35:11;;;;;;;11.20;9.85;;;;;;;17.21;79.90;99389.16;2032228;79;20193;-73
2021/06/24 03:38:14;;;;;;;15.19;11.74;;;;;;;17.14;81.06;99390.28;2032846;79;20922;-73
2021/06/24 03:41:23;;;;;;;14.86;11.50;;;;;;;17.08;82.05;99390.47;2033179;79;20257;-72
2021/06/24 03:44:26;;;;;;;15.18;11.44;;;;;;;17.02;82.92;99383.63;2032532;79;20887;-73
2021/06/24 03:47:28;;;;;;;14.41;11.34;;;;;;;16.97;83.43;99384.69;2027696;77;21062;-73
2021/06/24 03:50:31;;;;;;;13.79;11.06;;;;;;;16.94;83.94;99390.03;2030787;79;20190;-73
2021/06/24 03:53:35;;;;;;;13.01;11.41;;;;;;;16.90;84.35;99389.25;2027770;79;20182;-72
2021/06/24 03:56:37;;;;;;;17.04;12.19;;;;;;;16.86;84.74;99388.47;2027415;79;20814;-71
2021/06/24 03:59:40;;;;;;;12.89;11.45;;;;;;;16.85;85.21;99394.63;2027182;79;20196;-72
2021/06/24 04:02:42;;;;;;;13.86;12.02;;;;;;;16.85;85.38;99396.38;2031644;76;30583;-72
2021/06/24 04:05:47;;;;;;;15.65;12.11;;;;;;;16.81;85.56;99406.13;2033422;79;20222;-71
2021/06/24 04:08:50;;;;;;;13.93;12.45;;;;;;;16.80;85.89;99406.16;2032547;79;20178;-71
2021/06/24 04:11:53;;;;;;;13.46;11.73;;;;;;;16.77;86.25;99407.13;2032855;79;20247;-73
2021/06/24 04:14:55;;;;;;;12.27;10.29;;;;;;;16.75;86.39;99401.06;2033170;79;20703;-72
2021/06/24 04:18:03;;;;;;;11.63;10.21;;;;;;;16.74;86.63;99401.97;2026809;77;20222;-71
2021/06/24 04:21:06;;;;;;;14.20;11.11;;;;;;;16.71;86.72;99394.19;2027256;79;20226;-73
2021/06/24 04:24:09;;;;;;;17.38;11.93;;;;;;;16.66;86.86;99390.78;2027177;79;20170;-73
2021/06/24 04:27:12;;;;;;;13.93;12.19;;;;;;;16.65;87.34;99389.06;2026841;79;20178;-73
2021/06/24 04:30:16;;;;;;;14.96;12.26;;;;;;;16.65;87.62;99388.22;2027418;79;20198;-72
2021/06/24 04:33:18;;;;;;;14.20;11.35;;;;;;;16.61;87.69;99382.22;2032597;77;33248;-72
2021/06/24 04:36:21;;;;;;;14.45;10.75;;;;;;;16.58;87.92;99388.41;2032770;79;20215;-72
2021/06/24 04:39:23;;;;;;;13.41;10.57;;;;;;;16.58;88.08;99380.53;2033672;79;20250;-72
2021/06/24 04:42:46;;;;;;;10.71;9.45;;;;;;;16.58;88.28;99380.53;2031782;79;20199;-72
2021/06/24 04:45:48;;;;;;;13.15;10.01;;;;;;;16.58;88.36;99371.81;2030426;77;20174;-73
2021/06/24 04:48:51;;;;;;;10.00;8.90;;;;;;;16.60;88.36;99368.25;2027049;79;20233;-73
2021/06/24 04:51:53;;;;;;;16.06;10.41;;;;;;;16.61;88.30;99372.59;2027156;79;20681;-74
2021/06/24 04:54:56;;;;;;;12.44;10.16;;;;;;;16.61;88.30;99362.09;2027773;79;20851;-72
2021/06/24 04:57:59;;;;;;;14.60;10.59;;;;;;;16.64;88.65;99366.38;2027517;79;20214;-73
2021/06/24 05:01:01;;;;;;;12.54;9.59;;;;;;;16.62;89.01;99362.97;2028758;76;20193;-72
2021/06/24 05:04:04;;;;;;;13.04;10.31;;;;;;;16.57;89.01;99357.84;2033736;79;20174;-72
2021/06/24 05:07:09;;;;;;;15.69;10.54;;;;;;;16.52;89.33;99362.38;2033143;79;20192;-71
2021/06/24 05:10:12;;;;;;;11.76;10.24;;;;;;;16.46;89.53;99356.44;2033177;79;20165;-72
2021/06/24 05:13:15;;;;;;;15.25;10.75;;;;;;;16.47;89.95;99363.41;2033048;79;20178;-71
2021/06/24 05:16:17;;;;;;;12.80;11.01;;;;;;;16.52;90.18;99358.91;2030370;77;20975;-72
2021/06/24 05:19:20;;;;;;;14.29;11.10;;;;;;;16.55;90.16;99362.28;2028405;79;20216;-72
2021/06/24 05:22:23;;;;;;;13.38;10.44;;;;;;;16.55;90.10;99354.44;2028079;79;20182;-72
2021/06/24 05:25:25;;;;;;;13.77;10.32;;;;;;;16.59;89.86;99363.91;2028782;79;20179;-72
2021/06/24 05:28:29;;;;;;;13.15;10.10;;;;;;;16.61;89.64;99361.25;2027871;79;20236;-72
2021/06/24 05:31:32;;;;;;;12.69;10.00;;;;;;;16.60;89.55;99360.38;2030003;77;20811;-72
2021/06/24 05:34:34;;;;;;;10.81;9.79;;;;;;;16.61;89.36;99356.84;2033493;79;20626;-72
2021/06/24 05:37:37;;;;;;;12.26;10.50;;;;;;;16.62;89.18;99361.19;2033183;79;20635;-71
2021/06/24 05:40:41;;;;;;;10.60;9.51;;;;;;;16.62;89.22;99360.34;2032622;79;20573;-71
2021/06/24 05:43:43;;;;;;;12.00;9.99;;;;;;;16.64;89.18;99361.16;2033168;79;20191;-71
2021/06/24 05:46:46;;;;;;;11.80;10.09;;;;;;;16.65;89.07;99364.63;2029436;77;20188;-71
2021/06/24 05:49:49;;;;;;;12.09;10.89;;;;;;;16.66;89.10;99363.72;2028642;79;20174;-72
2021/06/24 05:52:55;;;;;;;10.61;9.51;;;;;;;16.67;89.08;99357.59;2028951;79;20699;-71
2021/06/24 05:55:58;;;;;;;10.86;9.74;;;;;;;16.69;89.12;99356.66;2027740;79;21081;-71
2021/06/24 05:59:03;;;;;;;10.13;9.11;;;;;;;16.74;89.17;99364.41;2027572;79;20191;-72
2021/06/24 06:02:06;;;;;;;11.91;9.13;;;;;;;16.73;89.11;99362.69;2030682;76;36079;-71
2021/06/24 06:05:11;;;;;;;10.46;8.49;;;;;;;16.72;89.06;99368.84;2032687;79;20197;-72
2021/06/24 06:08:13;;;;;;;10.23;8.38;;;;;;;16.75;89.08;99364.34;2032846;79;20190;-73
2021/06/24 06:11:18;;;;;;;7.61;6.96;;;;;;;16.77;89.02;99362.53;2033537;79;20173;-72
2021/06/24 06:14:20;;;;;;;10.84;7.21;;;;;;;16.79;88.85;99355.47;2033065;79;20262;-74
2021/06/24 06:17:23;;;;;;;8.46;7.69;;;;;;;16.81;88.72;99360.69;2028232;76;20190;-73
2021/06/24 06:20:25;;;;;;;7.68;6.90;;;;;;;16.84;88.67;99355.34;2027828;79;20170;-73
2021/06/24 06:23:29;;;;;;;6.86;6.22;;;;;;;16.85;88.59;99364.91;2026898;79;20214;-72
2021/06/24 06:26:31;;;;;;;7.50;6.80;;;;;;;16.85;88.72;99357.91;2028068;79;20788;-72
2021/06/24 06:29:34;;;;;;;7.81;7.01;;;;;;;16.87;88.65;99358.72;2027746;79;20294;-74
2021/06/24 06:32:37;;;;;;;7.28;6.54;;;;;;;16.89;88.53;99362.19;2027049;77;21649;-72
2021/06/24 06:35:39;;;;;;;7.68;6.84;;;;;;;16.91;88.44;99357.75;2028228;79;20631;-72
2021/06/24 06:38:42;;;;;;;7.04;6.34;;;;;;;16.92;88.33;99355.97;2027653;79;20846;-73
2021/06/24 06:41:45;;;;;;;6.47;5.88;;;;;;;16.94;88.49;99353.31;2026530;79;20178;-72
2021/06/24 06:44:47;;;;;;;5.59;5.11;;;;;;;16.97;88.43;99345.34;2027861;79;20186;-73
2021/06/24 06:47:50;;;;;;;5.88;5.28;;;;;;;16.98;88.36;99353.16;2030024;76;104344;-72
2021/06/24 06:50:52;;;;;;;5.32;4.90;;;;;;;16.99;88.47;99348.75;2033446;79;20673;-73
2021/06/24 06:53:55;;;;;;;5.89;5.19;;;;;;;17.01;88.29;99354.81;2031893;79;21097;-74
2021/06/24 06:56:58;;;;;;;5.57;5.04;;;;;;;17.02;88.06;99356.53;2033255;79;20234;-74
2021/06/24 07:00:03;;;;;;;4.68;4.28;;;;;;;17.03;87.95;99356.47;2033035;79;20158;-73
2021/06/24 07:03:06;;;;;;;5.22;4.56;;;;;;;17.05;88.12;99357.28;2027366;79;20202;-73
2021/06/24 07:06:09;;;;;;;4.97;4.68;;;;;;;17.09;88.29;99363.31;2027704;79;20191;-73
2021/06/24 07:09:11;;;;;;;5.61;4.95;;;;;;;17.12;88.34;99360.59;2027053;79;20221;-72
2021/06/24 07:12:14;;;;;;;5.03;4.59;;;;;;;17.14;88.23;99364.03;2028125;79;21032;-72
2021/06/24 07:15:17;;;;;;;5.00;4.59;;;;;;;17.16;88.25;99368.31;2026671;79;20171;-72
2021/06/24 07:18:20;;;;;;;5.31;4.72;;;;;;;17.20;88.28;99379.56;2032594;79;20242;-72
2021/06/24 07:21:23;;;;;;;7.57;4.94;;;;;;;17.21;88.30;99384.75;2032315;79;20250;-72
2021/06/24 07:24:26;;;;;;;4.82;4.35;;;;;;;17.25;88.29;99393.44;2032809;79;20173;-71
2021/06/24 07:27:28;;;;;;;6.61;4.78;;;;;;;17.26;88.47;99389.91;2033249;79;20170;-72
2021/06/24 07:30:31;;;;;;;4.88;4.38;;;;;;;17.29;88.64;99405.53;2030856;77;20783;-72
2021/06/24 07:33:34;;;;;;;5.34;4.84;;;;;;;17.31;88.42;99416.84;2027765;79;20209;-72
2021/06/24 07:36:37;;;;;;;6.71;4.71;;;;;;;17.34;88.56;99413.25;2027518;79;20639;-73
2021/06/24 07:39:40;;;;;;;6.39;5.04;;;;;;;17.37;88.67;99421.88;2026975;79;20243;-74
2021/06/24 07:42:42;;;;;;;5.06;3.94;;;;;;;17.41;88.76;99425.28;2027458;79;20264;-73
2021/06/24 07:45:45;;;;;;;6.35;4.15;;;;;;;17.41;88.95;99430.53;2028364;77;20237;-73
2021/06/24 07:48:48;;;;;;;4.18;3.85;;;;;;;17.39;88.66;99438.44;2033199;79;20190;-75
2021/06/24 07:51:51;;;;;;;3.99;3.21;;;;;;;17.39;88.73;99437.59;2032263;79;20651;-74
2021/06/24 07:54:54;;;;;;;3.79;3.21;;;;;;;17.38;88.58;99439.34;2032491;79;20213;-75
2021/06/24 07:57:57;;;;;;;2.96;2.65;;;;;;;17.40;88.48;99444.56;2032801;79;20277;-75
2021/06/24 08:00:59;;;;;;;2.78;2.30;;;;;;;17.45;88.38;99440.91;2030031;77;20342;-73
2021/06/24 08:04:04;;;;;;;2.96;2.17;;;;;;;17.51;88.37;99448.56;2027867;79;20709;-73
2021/06/24 08:07:07;;;;;;;3.90;2.40;;;;;;;17.59;88.05;99443.06;2027583;79;20198;-73
2021/06/24 08:10:11;;;;;;;2.38;2.28;;;;;;;17.70;88.08;99450.63;2027279;79;20217;-73
2021/06/24 08:13:14;;;;;;;4.09;2.10;;;;;;;17.75;87.91;99451.34;2027500;79;20203;-73
2021/06/24 08:16:17;;;;;;;2.09;1.89;;;;;;;17.76;87.63;99448.66;2027017;76;20206;-74
2021/06/24 08:19:20;;;;;;;4.14;1.81;;;;;;;17.80;87.46;99452.94;2027106;79;20630;-74
2021/06/24 08:22:24;;;;;;;2.45;1.55;;;;;;;17.84;87.24;99453.69;2030913;79;20218;-74
2021/06/24 08:25:26;;;;;;;1.39;1.20;;;;;;;17.87;87.23;99461.47;2027206;79;20190;-75
2021/06/24 08:28:30;;;;;;;1.90;1.34;;;;;;;17.86;86.37;99461.50;2030472;79;20194;-75
2021/06/24 08:31:33;;;;;;;2.03;1.50;;;;;;;17.84;85.39;99472.06;2026629;79;20878;-74
2021/06/24 08:34:39;;;;;;;1.92;1.26;;;;;;;17.85;86.00;99472.94;2027636;79;20970;-74
2021/06/24 08:37:41;;;;;;;1.50;1.40;;;;;;;17.89;85.74;99470.16;2026932;80;20186;-75
2021/06/24 08:40:45;;;;;;;1.75;1.39;;;;;;;17.93;85.93;99479.63;2026997;79;20643;-75
2021/06/24 08:43:48;;;;;;;1.21;1.11;;;;;;;17.97;86.31;99483.91;2027183;80;20652;-74
2021/06/24 08:46:55;;;;;;;1.16;1.10;;;;;;;18.02;86.10;99489.00;2029884;77;21566;-74
2021/06/24 08:50:00;;;;;;;2.19;1.06;;;;;;;18.05;86.25;99488.88;2032621;79;20209;-75
2021/06/24 08:53:03;;;;;;;2.14;1.24;;;;;;;18.06;86.32;99494.09;2032322;79;20718;-75
2021/06/24 08:56:06;;;;;;;1.60;0.93;;;;;;;18.07;86.09;99490.56;2035389;79;20314;-74
2021/06/24 08:59:09;;;;;;;1.75;1.00;;;;;;;18.05;86.00;99497.63;2031872;79;20317;-74
2021/06/24 09:02:15;;;;;;;1.50;0.79;;;;;;;18.06;85.81;99494.09;2031250;77;21155;-74
2021/06/24 09:05:18;;;;;;;0.70;0.70;;;;;;;18.12;85.52;99490.38;2032672;79;20185;-74
2021/06/24 09:08:26;;;;;;;1.60;0.90;;;;;;;18.20;85.25;99503.28;2032896;79;20199;-74
2021/06/24 09:11:28;;;;;;;1.29;0.65;;;;;;;18.28;85.26;99502.09;2033103;79;20262;-74
2021/06/24 09:14:38;;;;;;;0.74;0.74;;;;;;;18.34;84.79;99488.78;2033288;79;20201;-74
2021/06/24 09:17:43;;;;;;;0.70;0.70;;;;;;;18.45;84.40;99493.66;2026468;77;20972;-74
2021/06/24 09:20:47;;;;;;;2.30;0.90;;;;;;;18.56;84.24;99490.66;2027072;79;20211;-74
2021/06/24 09:23:52;;;;;;;1.44;0.70;;;;;;;18.64;84.48;99484.22;2027305;80;20222;-74
2021/06/24 09:26:57;;;;;;;2.11;1.42;;;;;;;18.72;84.31;99486.59;2027373;80;20182;-73
2021/06/24 09:30:11;;;;;;;0.80;0.77;;;;;;;18.80;84.06;99483.69;2027045;80;20767;-74
2021/06/24 09:33:16;;;;;;;2.58;0.89;;;;;;;18.88;83.91;99474.59;2027024;77;20262;-74
2021/06/24 09:36:46;;;;;;;1.06;0.90;;;;;;;18.98;83.14;99477.72;2026558;80;20208;-72
2021/06/24 09:39:54;;;;;;;1.59;0.64;;;;;;;19.07;82.58;99476.56;2026803;79;20196;-73
2021/06/24 09:42:57;;;;;;;3.23;1.12;;;;;;;19.10;81.91;99471.16;2028925;79;20988;-73
2021/06/24 09:46:01;;;;;;;3.09;1.08;;;;;;;19.19;81.66;99474.28;2029059;77;21950;-73
2021/06/24 09:49:05;;;;;;;1.96;1.36;;;;;;;19.26;81.60;99469.66;2031863;79;20193;-73
2021/06/24 09:52:07;;;;;;;4.71;3.70;;;;;;;19.31;81.15;99475.59;2033265;79;20193;-73
2021/06/24 09:55:15;;;;;;;4.35;2.55;;;;;;;19.33;81.10;99486.94;2033410;79;20195;-75
2021/06/24 09:58:18;;;;;;;1.70;1.59;;;;;;;19.35;81.07;99481.59;2032902;79;20199;-75
2021/06/24 10:01:29;;;;;;;1.99;1.17;;;;;;;19.39;81.18;99483.19;2030337;76;21346;-74
2021/06/24 10:04:31;;;;;;;1.64;1.06;;;;;;;19.48;81.28;99480.22;2028078;79;20395;-75
2021/06/24 10:07:34;;;;;;;0.85;0.85;;;;;;;19.58;80.26;99477.22;2027529;79;20765;-74
2021/06/24 10:10:39;;;;;;;1.02;0.80;;;;;;;19.74;80.13;99474.78;2028920;79;20292;-75
2021/06/24 10:13:42;;;;;;;2.20;0.75;;;;;;;19.91;78.99;99480.22;2027481;79;20182;-74
2021/06/24 10:16:53;;;;;;;0.74;0.71;;;;;;;19.98;75.84;99477.38;2027312;76;261176;-73
2021/06/24 10:19:57;;;;;;;0.98;0.70;;;;;;;20.11;76.55;99479.44;2032915;79;20207;-73
2021/06/24 10:23:10;;;;;;;1.02;0.75;;;;;;;20.32;75.83;99476.81;2032877;79;20174;-72
2021/06/24 10:26:15;;;;;;;3.96;0.70;;;;;;;20.50;74.92;99476.91;2032449;79;20626;-72
2021/06/24 10:29:20;;;;;;;2.97;0.82;;;;;;;20.69;74.20;99478.72;2032265;79;20181;-72
2021/06/24 10:32:32;;;;;;;1.06;0.85;;;;;;;20.91;73.33;99478.63;2027895;76;20205;-72
2021/06/24 10:35:48;;;;;;;0.93;0.73;;;;;;;21.07;71.36;99474.34;2025917;79;20280;-73
2021/06/24 10:38:53;;;;;;;3.81;0.76;;;;;;;21.06;69.73;99480.56;2027325;79;20190;-72
2021/06/24 10:42:04;;;;;;;0.82;0.63;;;;;;;21.24;71.47;99471.81;2026519;79;20209;-72
2021/06/24 10:45:15;;;;;;;0.77;0.49;;;;;;;21.42;71.27;99463.03;2025067;79;20278;-72
2021/06/24 10:48:31;;;;;;;2.54;0.50;;;;;;;21.57;71.90;99464.09;2030874;77;29631;-75
2021/06/24 10:51:34;;;;;;;0.73;0.50;;;;;;;21.73;71.53;99472.13;2031309;79;20515;-74
2021/06/24 10:54:42;;;;;;;0.52;0.40;;;;;;;21.79;70.25;99466.53;2030449;79;20263;-73
2021/06/24 10:57:44;;;;;;;0.88;0.40;;;;;;;21.88;68.82;99454.66;2031306;79;20967;-74
2021/06/24 11:00:50;;;;;;;2.47;0.47;;;;;;;21.97;68.50;99464.78;2029441;77;20293;-75
2021/06/24 11:03:54;;;;;;;0.60;0.43;;;;;;;22.09;69.62;99458.06;2025784;79;20288;-74
2021/06/24 11:06:59;;;;;;;3.01;0.52;;;;;;;22.20;67.80;99458.34;2025959;79;20875;-74
2021/06/24 11:10:23;;;;;;;0.70;0.40;;;;;;;22.26;67.55;99453.63;2025019;79;20195;-74
2021/06/24 11:13:41;;;;;;;0.46;0.41;;;;;;;22.38;68.01;99446.81;2025498;79;20186;-75
2021/06/24 11:16:44;;;;;;;2.55;0.50;;;;;;;22.52;66.46;99436.38;2029375;77;31050;-75
2021/06/24 11:20:10;;;;;;;0.50;0.50;;;;;;;22.46;65.39;99436.72;2031285;79;20290;-74
2021/06/24 11:23:29;;;;;;;0.50;0.49;;;;;;;22.41;65.94;99437.88;2032106;79;20336;-74
2021/06/24 11:26:40;;;;;;;3.05;0.50;;;;;;;22.46;67.07;99430.56;2029710;79;21556;-74
2021/06/24 11:29:45;;;;;;;0.65;0.65;;;;;;;22.45;67.65;99431.50;2031274;79;20195;-74
2021/06/24 11:32:52;;;;;;;0.76;0.40;;;;;;;22.37;66.42;99434.53;2026367;76;20200;-74
2021/06/24 11:36:10;;;;;;;3.19;0.39;;;;;;;22.35;66.72;99433.75;2027217;79;20202;-73
2021/06/24 11:39:23;;;;;;;1.34;0.35;;;;;;;22.35;66.75;99436.41;2026768;79;20357;-74
2021/06/24 11:42:36;;;;;;;0.65;0.40;;;;;;;22.44;68.75;99433.31;2026691;79;20210;-74
2021/06/24 11:45:39;;;;;;;2.09;0.66;;;;;;;22.38;66.45;99433.59;2027193;76;20177;-74
2021/06/24 11:49:09;;;;;;;0.45;0.40;;;;;;;22.29;65.01;99440.25;2032068;79;20911;-74
2021/06/24 12:05:50;;;;;;;0.29;0.29;;;;;;;22.14;66.76;99450.75;2026708;79;20640;-74
2021/06/24 12:08:59;;;;;;;0.36;0.30;;;;;;;22.14;65.75;99453.38;2026709;79;20188;-74
2021/06/24 12:12:01;;;;;;;0.45;0.29;;;;;;;22.09;64.40;99443.06;2026902;79;20220;-74
2021/06/24 12:15:05;;;;;;;0.40;0.40;;;;;;;21.94;65.71;99451.72;2029433;79;20190;-74
2021/06/24 12:18:08;;;;;;;0.64;0.39;;;;;;;21.96;67.19;99457.78;2031547;76;20671;-74
2021/06/24 12:21:14;;;;;;;0.41;0.30;;;;;;;21.80;67.79;99454.19;2031694;79;20170;-74
2021/06/24 12:24:32;;;;;;;0.43;0.32;;;;;;;21.71;68.03;99447.53;2032022;79;20177;-71
2021/06/24 12:27:38;;;;;;;0.21;0.21;;;;;;;21.61;69.08;99452.44;2031968;79;20275;-71
2021/06/24 12:30:41;;;;;;;1.29;0.30;;;;;;;21.57;68.94;99458.81;2030725;79;21876;-71
2021/06/24 12:33:46;;;;;;;1.36;0.31;;;;;;;21.60;69.20;99452.50;2026888;79;20170;-71
2021/06/24 12:36:49;;;;;;;1.86;0.57;;;;;;;21.61;68.15;99441.88;2027679;79;20194;-71
2021/06/24 12:39:52;;;;;;;3.00;0.89;;;;;;;21.65;67.50;99450.50;2027347;80;20220;-72
2021/06/24 12:42:57;;;;;;;3.64;1.95;;;;;;;21.64;66.70;99447.00;2027364;79;20166;-73
2021/06/24 12:46:18;;;;;;;3.90;1.99;;;;;;;21.48;64.07;99442.53;2028412;77;26553;-71
2021/06/24 12:49:21;;;;;;;6.35;1.65;;;;;;;21.41;65.69;99444.63;2032066;79;20189;-71
2021/06/24 12:52:30;;;;;;;7.22;2.04;;;;;;;21.38;66.47;99442.97;2033333;79;20193;-70
2021/06/24 12:55:48;;;;;;;6.43;2.04;;;;;;;21.38;66.91;99448.28;2032527;79;20198;-71
2021/06/24 12:58:53;;;;;;;2.36;1.66;;;;;;;21.39;67.10;99449.13;2032221;79;20158;-72
2021/06/24 13:02:03;;;;;;;5.03;1.74;;;;;;;21.43;66.86;99448.03;2031241;79;20150;-72
2021/06/24 13:05:06;;;;;;;2.01;1.52;;;;;;;21.59;66.51;99443.72;2031986;79;20655;-72
2021/06/24 13:08:09;;;;;;;2.28;1.17;;;;;;;21.83;66.80;99446.94;2032021;79;20173;-72
2021/06/24 13:11:16;;;;;;;0.82;0.70;;;;;;;22.07;65.54;99444.03;2031185;79;20217;-73
2021/06/24 13:14:20;;;;;;;5.81;0.70;;;;;;;22.30;62.67;99436.66;2032138;79;20190;-73
2021/06/24 13:17:25;;;;;;;2.92;0.60;;;;;;;22.77;62.79;99440.38;2027487;77;20646;-73
2021/06/24 13:20:28;;;;;;;1.45;0.43;;;;;;;23.19;60.92;99431.94;2027183;79;20170;-72
2021/06/24 13:23:35;;;;;;;0.70;0.50;;;;;;;23.46;59.17;99427.72;2027145;79;20560;-76
2021/06/24 13:26:41;;;;;;;0.95;0.50;;;;;;;23.33;56.84;99433.78;2028230;79;20184;-76
2021/06/24 13:29:54;;;;;;;0.98;0.52;;;;;;;23.50;57.94;99429.25;2027771;79;20196;-76
2021/06/24 13:32:57;;;;;;;1.15;0.70;;;;;;;23.53;57.22;99428.25;2028064;79;333323;-76
2021/06/24 13:36:00;;;;;;;1.40;0.66;;;;;;;23.49;57.05;99427.53;2032318;79;20162;-76
2021/06/24 13:39:07;;;;;;;1.26;0.40;;;;;;;23.30;56.75;99426.88;2032783;79;20421;-76
2021/06/24 13:42:10;;;;;;;0.98;0.40;;;;;;;23.15;56.95;99433.88;2032472;79;20190;-76
2021/06/24 13:45:17;;;;;;;0.43;0.30;;;;;;;23.15;57.72;99433.00;2031775;79;20247;-75
2021/06/24 13:48:20;;;;;;;1.26;0.36;;;;;;;23.05;57.73;99437.13;2027336;77;20375;-76
2021/06/24 13:51:24;;;;;;;0.66;0.20;;;;;;;22.86;59.21;99451.38;2026873;79;20194;-76
2021/06/24 13:54:28;;;;;;;0.20;0.20;;;;;;;22.62;59.99;99449.97;2027388;79;20166;-75
2021/06/24 13:57:31;;;;;;;0.21;0.20;;;;;;;22.43;59.66;99452.72;2026955;79;20175;-76
2021/06/24 14:00:39;;;;;;;0.79;0.20;;;;;;;22.34;60.89;99455.00;2027230;76;110255;-75
2021/06/24 14:03:43;;;;;;;0.90;0.30;;;;;;;22.21;60.18;99458.28;2032064;79;20191;-76
2021/06/24 14:06:47;;;;;;;1.01;0.20;;;;;;;22.08;60.54;99458.97;2032057;79;20169;-74
2021/06/24 14:09:49;;;;;;;0.20;0.20;;;;;;;22.03;60.94;99462.66;2033234;79;20166;-74
2021/06/24 14:12:54;;;;;;;0.66;0.20;;;;;;;21.99;60.92;99463.75;2033316;79;20283;-76
2021/06/24 14:15:56;;;;;;;0.20;0.20;;;;;;;21.83;60.67;99461.97;2030120;77;20718;-75
2021/06/24 14:19:00;;;;;;;0.40;0.20;;;;;;;21.81;61.51;99464.69;2026948;79;20174;-75
2021/06/24 14:22:06;;;;;;;1.36;0.30;;;;;;;21.85;62.28;99468.03;2027133;79;20163;-75
2021/06/24 14:25:09;;;;;;;0.20;0.20;;;;;;;21.87;62.96;99467.00;2027816;79;20753;-75
2021/06/24 14:28:12;;;;;;;1.19;0.30;;;;;;;21.80;63.38;99464.75;2027203;79;20674;-75
2021/06/24 14:31:15;;;;;;;1.54;0.36;;;;;;;21.65;62.28;99461.91;2028698;77;22130;-73
2021/06/24 14:34:18;;;;;;;0.73;0.38;;;;;;;21.46;65.18;99471.66;2033686;79;20314;-73